Time;durP1;ratioP1;P1;durP2;ratioP2;P2;SDS_P1;SDS_P2;PMS_P1;PMS_P2;Temp;Humidity;BMP_temperature;BMP_pressure;BME280_temperature;BME280_humidity;BME280_pressure;Samples;Min_cycle;Max_cycle;Signal;HPM_P1;HPM_P2
2023/12/27 00:00:30;;;;;;;38.90;4.93;;;;;;;;;;5091578;28;20056;-76
2023/12/27 00:02:56;;;;;;;32.17;3.90;;;;;;;;;;5091392;28;20032;-74
2023/12/27 00:05:22;;;;;;;26.77;3.58;;;;;;;;;;5091537;28;20020;-75
2023/12/27 00:07:48;;;;;;;25.45;3.30;;;;;;;;;;5091515;28;20058;-75
2023/12/27 00:10:14;;;;;;;35.90;3.88;;;;;;;;;;5091609;28;20028;-74
2023/12/27 00:12:40;;;;;;;38.17;4.20;;;;;;;;;;5091176;28;20103;-74
2023/12/27 00:15:06;;;;;;;28.98;4.15;;;;;;;;;;5091705;28;20130;-75
2023/12/27 00:17:32;;;;;;;34.17;4.85;;;;;;;;;;5091697;28;20089;-74
2023/12/27 00:19:58;;;;;;;25.67;3.75;;;;;;;;;;5091259;28;20031;-75
2023/12/27 00:22:24;;;;;;;24.25;3.58;;;;;;;;;;5090959;28;20028;-74
2023/12/27 00:24:50;;;;;;;30.17;4.00;;;;;;;;;;5091468;28;20463;-74
2023/12/27 00:27:16;;;;;;;38.17;3.58;;;;;;;;;;5091316;28;20020;-75
2023/12/27 00:29:42;;;;;;;32.75;3.45;;;;;;;;;;5091301;28;20056;-74
2023/12/27 00:32:09;;;;;;;34.30;3.72;;;;;;;;;;5090991;28;20031;-75
2023/12/27 00:34:39;;;;;;;45.95;4.25;;;;;;;;;;5091421;28;20043;-75
2023/12/27 00:37:05;;;;;;;39.17;5.18;;;;;;;;;;5091194;28;20020;-75
2023/12/27 00:39:31;;;;;;;31.75;6.55;;;;;;;;;;5091209;28;20028;-75
2023/12/27 00:41:57;;;;;;;32.75;4.95;;;;;;;;;;5090829;28;20526;-75
2023/12/27 00:44:23;;;;;;;34.05;4.97;;;;;;;;;;5091315;28;20023;-75
2023/12/27 00:46:49;;;;;;;29.73;3.67;;;;;;;;;;5091386;28;20024;-76
2023/12/27 00:49:16;;;;;;;29.42;3.97;;;;;;;;;;5091781;28;20028;-76
2023/12/27 00:51:43;;;;;;;24.02;4.43;;;;;;;;;;5091661;28;20043;-76
2023/12/27 00:54:09;;;;;;;26.75;4.80;;;;;;;;;;5091898;28;20027;-75
2023/12/27 00:56:35;;;;;;;33.30;4.07;;;;;;;;;;5092350;28;20024;-75
2023/12/27 00:59:01;;;;;;;32.40;4.05;;;;;;;;;;5090977;28;20453;-75
2023/12/27 01:01:30;;;;;;;22.15;3.38;;;;;;;;;;5097379;28;20061;-74
2023/12/27 01:03:56;;;;;;;26.02;3.75;;;;;;;;;;5104421;28;20020;-74
2023/12/27 01:06:22;;;;;;;29.05;3.92;;;;;;;;;;5102614;28;20031;-75
2023/12/27 01:08:48;;;;;;;26.00;3.45;;;;;;;;;;5096242;28;20024;-75
2023/12/27 01:11:14;;;;;;;27.50;3.75;;;;;;;;;;5094444;28;20031;-75
2023/12/27 01:13:40;;;;;;;30.42;3.40;;;;;;;;;;5094573;28;20055;-75
2023/12/27 01:16:06;;;;;;;16.55;3.25;;;;;;;;;;5094388;28;20036;-75
2023/12/27 01:18:32;;;;;;;29.63;3.28;;;;;;;;;;5094509;28;20043;-75
2023/12/27 01:20:58;;;;;;;28.80;4.28;;;;;;;;;;5094298;28;20472;-76
2023/12/27 01:23:24;;;;;;;27.90;3.33;;;;;;;;;;5094586;28;20031;-76
2023/12/27 01:25:50;;;;;;;34.72;4.35;;;;;;;;;;5094586;28;20434;-75
2023/12/27 01:28:16;;;;;;;19.90;2.92;;;;;;;;;;5094567;28;20058;-76
2023/12/27 01:30:42;;;;;;;27.33;3.75;;;;;;;;;;5094375;28;20103;-74
2023/12/27 01:33:08;;;;;;;26.88;4.10;;;;;;;;;;5093873;28;20555;-75
2023/12/27 01:35:34;;;;;;;30.55;3.97;;;;;;;;;;5094247;28;20027;-75
2023/12/27 01:38:00;;;;;;;28.60;3.72;;;;;;;;;;5094371;28;20506;-75
2023/12/27 01:40:26;;;;;;;30.42;4.40;;;;;;;;;;5094284;28;20415;-77
2023/12/27 01:42:52;;;;;;;24.42;3.33;;;;;;;;;;5092549;28;20024;-75
2023/12/27 01:45:18;;;;;;;25.52;3.72;;;;;;;;;;5094051;28;20016;-75
2023/12/27 01:47:44;;;;;;;35.40;3.35;;;;;;;;;;5093937;28;20020;-75
2023/12/27 01:50:11;;;;;;;35.88;3.95;;;;;;;;;;5094142;28;20027;-75
2023/12/27 01:52:39;;;;;;;22.17;2.63;;;;;;;;;;5093970;28;20035;-76
2023/12/27 01:55:05;;;;;;;22.60;2.45;;;;;;;;;;5094488;28;20391;-78
2023/12/27 01:57:31;;;;;;;20.27;3.13;;;;;;;;;;5094057;28;20143;-74
2023/12/27 01:59:57;;;;;;;28.85;3.67;;;;;;;;;;5093608;28;20114;-75
2023/12/27 02:02:23;;;;;;;25.02;4.07;;;;;;;;;;5093530;28;20424;-76
2023/12/27 02:04:49;;;;;;;27.25;3.15;;;;;;;;;;5093948;28;20095;-75
2023/12/27 02:07:15;;;;;;;25.50;3.28;;;;;;;;;;5093788;28;20038;-75
2023/12/27 02:09:42;;;;;;;32.33;3.80;;;;;;;;;;5093900;28;20020;-76
2023/12/27 02:12:08;;;;;;;32.53;3.80;;;;;;;;;;5093979;28;20047;-76
2023/12/27 02:14:34;;;;;;;27.65;3.85;;;;;;;;;;5093918;28;20383;-75
2023/12/27 02:17:01;;;;;;;37.35;4.32;;;;;;;;;;5093852;28;20020;-75
2023/12/27 02:19:28;;;;;;;27.63;3.75;;;;;;;;;;5093470;28;20017;-75
2023/12/27 02:21:55;;;;;;;33.70;3.67;;;;;;;;;;5092102;28;20021;-76
2023/12/27 02:24:22;;;;;;;26.55;3.83;;;;;;;;;;5093350;28;20047;-74
2023/12/27 02:26:48;;;;;;;24.98;3.60;;;;;;;;;;5093384;28;20081;-75
2023/12/27 02:29:15;;;;;;;36.75;3.72;;;;;;;;;;5093308;28;20378;-75
2023/12/27 02:31:41;;;;;;;33.58;3.88;;;;;;;;;;5093046;28;20115;-75
2023/12/27 02:34:07;;;;;;;29.98;3.95;;;;;;;;;;5093149;28;20020;-76
2023/12/27 02:36:33;;;;;;;31.95;4.38;;;;;;;;;;5093235;28;20085;-75
2023/12/27 02:38:59;;;;;;;38.33;4.53;;;;;;;;;;5092948;28;20032;-75
2023/12/27 02:41:25;;;;;;;43.72;7.20;;;;;;;;;;5092942;28;20066;-75
2023/12/27 02:43:51;;;;;;;40.53;5.40;;;;;;;;;;5093738;28;20056;-75
2023/12/27 02:46:17;;;;;;;35.35;3.95;;;;;;;;;;5093324;28;20077;-76
2023/12/27 02:48:43;;;;;;;28.65;3.00;;;;;;;;;;5113452;28;20038;-75
2023/12/27 02:51:09;;;;;;;32.92;4.05;;;;;;;;;;5115980;28;20044;-74
2023/12/27 02:53:35;;;;;;;30.70;5.03;;;;;;;;;;5106487;28;20054;-75
2023/12/27 02:56:01;;;;;;;28.23;4.65;;;;;;;;;;5101866;28;20394;-75
2023/12/27 02:58:27;;;;;;;27.10;4.05;;;;;;;;;;5092745;28;20090;-75
2023/12/27 03:00:53;;;;;;;35.50;3.85;;;;;;;;;;5092439;28;20024;-75
2023/12/27 03:03:19;;;;;;;30.98;3.92;;;;;;;;;;5092473;28;20107;-75
2023/12/27 03:05:45;;;;;;;24.70;3.33;;;;;;;;;;5092892;28;20360;-77
2023/12/27 03:08:11;;;;;;;23.75;3.13;;;;;;;;;;5093028;28;20016;-76
2023/12/27 03:10:37;;;;;;;29.25;3.78;;;;;;;;;;5092658;28;20502;-76
2023/12/27 03:13:03;;;;;;;25.73;3.67;;;;;;;;;;5092321;28;20027;-76
2023/12/27 03:15:29;;;;;;;18.83;3.75;;;;;;;;;;5093062;28;20035;-75
2023/12/27 03:17:55;;;;;;;30.27;4.10;;;;;;;;;;5091686;28;20485;-75
2023/12/27 03:20:21;;;;;;;28.48;4.90;;;;;;;;;;5100346;28;20020;-75
2023/12/27 03:22:47;;;;;;;28.08;3.33;;;;;;;;;;5112143;28;20408;-75
2023/12/27 03:25:13;;;;;;;24.08;3.60;;;;;;;;;;5112556;28;20452;-75
2023/12/27 03:27:39;;;;;;;32.20;3.80;;;;;;;;;;5111630;27;20051;-75
2023/12/27 03:30:05;;;;;;;25.63;3.63;;;;;;;;;;5112668;28;20506;-75
2023/12/27 03:32:32;;;;;;;28.52;4.05;;;;;;;;;;5111837;28;20424;-75
2023/12/27 03:34:58;;;;;;;22.92;3.58;;;;;;;;;;5110024;28;20076;-74
2023/12/27 03:37:24;;;;;;;20.83;3.13;;;;;;;;;;5112391;28;20115;-75
2023/12/27 03:39:51;;;;;;;40.88;5.03;;;;;;;;;;5112159;28;20062;-74
2023/12/27 03:42:19;;;;;;;20.60;3.97;;;;;;;;;;5109654;28;20020;-75
2023/12/27 03:44:47;;;;;;;24.58;3.97;;;;;;;;;;5112173;28;20041;-74
2023/12/27 03:47:13;;;;;;;27.80;4.25;;;;;;;;;;5112263;28;20492;-75
2023/12/27 03:49:39;;;;;;;33.90;4.68;;;;;;;;;;5112361;28;20073;-75
2023/12/27 03:52:05;;;;;;;31.90;4.38;;;;;;;;;;5112439;28;20031;-75
2023/12/27 03:54:31;;;;;;;35.90;4.53;;;;;;;;;;5112436;28;20038;-75
2023/12/27 03:56:57;;;;;;;27.58;3.80;;;;;;;;;;5112353;28;20023;-75
2023/12/27 03:59:23;;;;;;;25.58;4.15;;;;;;;;;;5111906;28;20470;-75
2023/12/27 04:01:49;;;;;;;30.15;3.47;;;;;;;;;;5111529;28;20111;-75
2023/12/27 04:04:15;;;;;;;37.42;3.97;;;;;;;;;;5111889;28;20030;-76
2023/12/27 04:06:41;;;;;;;30.42;4.13;;;;;;;;;;5112164;28;20470;-76
2023/12/27 04:09:07;;;;;;;28.45;4.28;;;;;;;;;;5112938;28;20028;-78
2023/12/27 04:11:34;;;;;;;36.13;4.47;;;;;;;;;;5113606;28;20066;-77
2023/12/27 04:14:00;;;;;;;26.85;3.08;;;;;;;;;;5113127;28;20045;-76
2023/12/27 04:16:26;;;;;;;40.45;4.25;;;;;;;;;;5112678;28;20023;-75
2023/12/27 04:18:52;;;;;;;31.40;3.38;;;;;;;;;;5111894;28;20482;-75
2023/12/27 04:21:20;;;;;;;21.77;3.15;;;;;;;;;;5111570;28;20038;-76
2023/12/27 04:23:46;;;;;;;29.55;3.90;;;;;;;;;;5112738;28;20028;-75
2023/12/27 04:26:12;;;;;;;25.25;2.92;;;;;;;;;;5113474;28;20039;-73
2023/12/27 04:28:38;;;;;;;29.48;4.05;;;;;;;;;;5116799;28;20087;-76
2023/12/27 04:31:04;;;;;;;25.58;3.50;;;;;;;;;;5116194;28;20028;-73
2023/12/27 04:33:30;;;;;;;26.90;4.15;;;;;;;;;;5113672;28;20027;-74
2023/12/27 04:35:56;;;;;;;30.58;4.03;;;;;;;;;;5113693;28;20038;-74
2023/12/27 04:38:22;;;;;;;23.98;3.58;;;;;;;;;;5119416;28;20028;-75
2023/12/27 04:40:48;;;;;;;25.30;3.65;;;;;;;;;;5120734;28;20024;-76
2023/12/27 04:43:14;;;;;;;30.42;3.90;;;;;;;;;;5121671;28;20059;-75
2023/12/27 04:45:40;;;;;;;33.15;3.92;;;;;;;;;;5116482;28;20027;-75
2023/12/27 04:48:07;;;;;;;31.38;3.78;;;;;;;;;;5116156;28;20024;-76
2023/12/27 04:50:33;;;;;;;32.45;4.07;;;;;;;;;;5115836;28;20494;-74
2023/12/27 04:52:59;;;;;;;23.70;3.50;;;;;;;;;;5115572;28;20028;-76
2023/12/27 04:55:25;;;;;;;30.88;3.78;;;;;;;;;;5115820;28;20019;-75
2023/12/27 04:57:51;;;;;;;32.50;4.20;;;;;;;;;;5115343;28;20390;-77
2023/12/27 05:00:17;;;;;;;35.97;4.55;;;;;;;;;;5115590;28;20032;-75
2023/12/27 05:02:43;;;;;;;21.73;4.38;;;;;;;;;;5115252;27;20429;-75
2023/12/27 05:05:09;;;;;;;23.70;3.92;;;;;;;;;;5115706;28;20023;-76
2023/12/27 05:07:35;;;;;;;37.63;3.78;;;;;;;;;;5115711;28;20024;-76
2023/12/27 05:10:01;;;;;;;29.27;4.05;;;;;;;;;;5115541;28;20490;-77
2023/12/27 05:12:27;;;;;;;34.45;4.10;;;;;;;;;;5115134;28;20080;-76
2023/12/27 05:14:53;;;;;;;39.53;7.05;;;;;;;;;;5115275;28;20020;-76
2023/12/27 05:17:19;;;;;;;30.45;4.40;;;;;;;;;;5115304;28;20558;-77
2023/12/27 05:19:45;;;;;;;25.48;3.83;;;;;;;;;;5115264;28;20038;-76
2023/12/27 05:22:11;;;;;;;23.70;3.65;;;;;;;;;;5114652;28;20020;-76
2023/12/27 05:24:37;;;;;;;27.35;4.30;;;;;;;;;;5115372;28;20020;-77
2023/12/27 05:27:03;;;;;;;34.55;4.45;;;;;;;;;;5115899;28;20413;-74
2023/12/27 05:29:29;;;;;;;28.48;4.10;;;;;;;;;;5115506;28;20073;-77
2023/12/27 05:31:55;;;;;;;32.60;3.78;;;;;;;;;;5114773;28;20509;-76
2023/12/27 05:34:21;;;;;;;27.27;3.25;;;;;;;;;;5115299;28;20088;-76
2023/12/27 05:36:47;;;;;;;21.10;3.63;;;;;;;;;;5115354;28;20031;-76
2023/12/27 05:39:13;;;;;;;27.10;4.53;;;;;;;;;;5117294;28;20027;-77
2023/12/27 05:41:39;;;;;;;25.40;4.57;;;;;;;;;;5115922;27;20024;-77
2023/12/27 05:44:05;;;;;;;29.70;3.83;;;;;;;;;;5114887;28;20055;-76
2023/12/27 05:46:35;;;;;;;29.48;3.85;;;;;;;;;;5114997;28;20055;-76
2023/12/27 05:49:01;;;;;;;31.17;3.40;;;;;;;;;;5115509;27;20054;-77
2023/12/27 05:51:27;;;;;;;25.05;3.30;;;;;;;;;;5114203;28;20094;-76
2023/12/27 05:53:53;;;;;;;24.92;4.07;;;;;;;;;;5115092;28;20488;-75
2023/12/27 05:56:19;;;;;;;22.02;4.15;;;;;;;;;;5115438;28;20540;-75
2023/12/27 05:58:46;;;;;;;22.67;4.93;;;;;;;;;;5114642;28;20268;-76
2023/12/27 06:01:12;;;;;;;32.60;5.80;;;;;;;;;;5115466;28;20024;-75
2023/12/27 06:03:38;;;;;;;24.25;4.45;;;;;;;;;;5113901;28;20118;-76
2023/12/27 06:06:04;;;;;;;29.15;4.57;;;;;;;;;;5115592;28;20504;-77
2023/12/27 06:08:30;;;;;;;28.58;4.05;;;;;;;;;;5115218;28;20058;-76
2023/12/27 06:10:56;;;;;;;19.88;3.25;;;;;;;;;;5115119;28;20067;-76
2023/12/27 06:13:22;;;;;;;25.35;3.53;;;;;;;;;;5113686;28;20031;-77
2023/12/27 06:15:48;;;;;;;30.73;3.75;;;;;;;;;;5112852;28;20031;-75
2023/12/27 06:18:14;;;;;;;21.40;3.42;;;;;;;;;;5114351;28;20085;-75
2023/12/27 06:20:40;;;;;;;19.90;3.30;;;;;;;;;;5115992;28;20020;-77
2023/12/27 06:23:06;;;;;;;23.38;3.40;;;;;;;;;;5122092;28;20045;-79
2023/12/27 06:25:32;;;;;;;18.48;3.25;;;;;;;;;;5129465;28;20016;-77
2023/12/27 06:27:58;;;;;;;27.10;3.80;;;;;;;;;;5139647;28;20012;-78
2023/12/27 06:30:24;;;;;;;28.25;7.13;;;;;;;;;;5128138;28;20094;-77
2023/12/27 06:32:50;;;;;;;24.33;4.70;;;;;;;;;;5132515;28;20031;-79
2023/12/27 06:35:16;;;;;;;25.25;3.42;;;;;;;;;;5120514;28;20402;-80
2023/12/27 06:37:42;;;;;;;25.30;3.45;;;;;;;;;;5123399;28;20026;-78
2023/12/27 06:40:08;;;;;;;28.17;4.00;;;;;;;;;;5114195;28;20024;-79
2023/12/27 06:42:35;;;;;;;31.25;4.63;;;;;;;;;;5116093;28;20027;-80
2023/12/27 06:45:01;;;;;;;23.52;4.22;;;;;;;;;;5106317;28;20079;-77
2023/12/27 06:47:27;;;;;;;23.33;3.97;;;;;;;;;;5107506;28;20024;-79
2023/12/27 06:49:53;;;;;;;23.52;3.80;;;;;;;;;;5111200;28;20105;-78
2023/12/27 06:52:19;;;;;;;30.75;4.47;;;;;;;;;;5113815;28;20103;-77
2023/12/27 06:54:45;;;;;;;23.65;4.75;;;;;;;;;;5114404;28;20020;-77
2023/12/27 06:57:12;;;;;;;24.20;3.70;;;;;;;;;;5114551;28;20096;-78
2023/12/27 06:59:38;;;;;;;29.35;4.22;;;;;;;;;;5117451;28;20024;-80
2023/12/27 07:02:07;;;;;;;23.80;3.90;;;;;;;;;;5119675;28;20032;-80
2023/12/27 07:04:33;;;;;;;35.13;4.63;;;;;;;;;;5103661;28;20020;-78
2023/12/27 07:06:59;;;;;;;30.35;4.03;;;;;;;;;;5132545;28;20098;-77
2023/12/27 07:09:25;;;;;;;23.95;3.55;;;;;;;;;;5124225;28;20096;-78
2023/12/27 07:11:51;;;;;;;32.42;4.25;;;;;;;;;;5115116;28;20031;-78
2023/12/27 07:14:17;;;;;;;24.05;4.68;;;;;;;;;;5125347;28;20023;-79
2023/12/27 07:16:44;;;;;;;30.48;4.47;;;;;;;;;;5117648;28;20584;-81
2023/12/27 07:19:10;;;;;;;76.00;30.98;;;;;;;;;;5108158;28;20085;-80
2023/12/27 07:21:36;;;;;;;40.55;14.73;;;;;;;;;;5110580;28;20031;-78
2023/12/27 07:24:02;;;;;;;35.47;9.30;;;;;;;;;;5104879;28;20020;-78
2023/12/27 07:26:28;;;;;;;33.83;9.20;;;;;;;;;;5093810;28;20095;-77
2023/12/27 07:28:54;;;;;;;67.70;26.40;;;;;;;;;;5092783;28;20063;-76
2023/12/27 07:31:20;;;;;;;35.60;9.35;;;;;;;;;;5092664;28;20099;-77
2023/12/27 07:33:46;;;;;;;23.90;4.85;;;;;;;;;;5092134;28;20552;-76
2023/12/27 07:36:12;;;;;;;35.10;5.57;;;;;;;;;;5092152;28;20638;-77
2023/12/27 07:38:38;;;;;;;37.15;6.80;;;;;;;;;;5099344;28;20054;-77
2023/12/27 07:41:05;;;;;;;47.30;4.85;;;;;;;;;;5116299;28;20040;-75
2023/12/27 07:43:31;;;;;;;28.48;4.47;;;;;;;;;;5104006;28;20024;-77
2023/12/27 07:45:57;;;;;;;22.60;4.25;;;;;;;;;;5109759;28;20030;-78
2023/12/27 07:48:23;;;;;;;25.05;5.13;;;;;;;;;;5100893;28;20028;-77
2023/12/27 07:50:50;;;;;;;33.83;7.38;;;;;;;;;;5091087;28;20501;-80
2023/12/27 07:53:16;;;;;;;29.48;6.90;;;;;;;;;;5102195;28;20433;-76
2023/12/27 07:55:42;;;;;;;34.65;6.63;;;;;;;;;;5112685;28;20020;-76
2023/12/27 07:58:08;;;;;;;38.28;8.38;;;;;;;;;;5112433;28;20024;-77
2023/12/27 08:00:35;;;;;;;36.70;7.95;;;;;;;;;;5111491;28;20112;-77
2023/12/27 08:03:04;;;;;;;25.10;7.18;;;;;;;;;;5104936;28;20095;-76
2023/12/27 08:05:30;;;;;;;35.40;7.60;;;;;;;;;;5091473;28;20038;-74
2023/12/27 08:07:56;;;;;;;29.35;7.47;;;;;;;;;;5092188;28;20036;-76
2023/12/27 08:10:22;;;;;;;31.08;6.43;;;;;;;;;;5092953;28;20032;-76
2023/12/27 08:12:48;;;;;;;31.25;5.90;;;;;;;;;;5093419;28;20028;-76
2023/12/27 08:15:14;;;;;;;27.13;5.35;;;;;;;;;;5092664;28;20059;-76
2023/12/27 08:17:40;;;;;;;18.23;4.63;;;;;;;;;;5093405;28;20028;-76
2023/12/27 08:20:06;;;;;;;25.15;4.35;;;;;;;;;;5092488;28;20110;-76
2023/12/27 08:22:32;;;;;;;31.42;4.75;;;;;;;;;;5092359;28;20414;-78
2023/12/27 08:24:59;;;;;;;33.03;5.65;;;;;;;;;;5092121;28;20555;-76
2023/12/27 08:27:25;;;;;;;31.02;6.20;;;;;;;;;;5093221;28;20394;-76
2023/12/27 08:29:51;;;;;;;29.20;6.05;;;;;;;;;;5092126;28;20024;-77
2023/12/27 08:32:17;;;;;;;21.60;4.57;;;;;;;;;;5091912;28;20104;-77
2023/12/27 08:34:43;;;;;;;23.83;5.43;;;;;;;;;;5090522;28;20498;-77
2023/12/27 08:37:09;;;;;;;27.20;4.95;;;;;;;;;;5091893;28;20033;-78
2023/12/27 08:39:35;;;;;;;22.48;4.88;;;;;;;;;;5093091;28;20020;-76
2023/12/27 08:42:01;;;;;;;33.58;8.50;;;;;;;;;;5092297;28;20070;-77
2023/12/27 08:44:27;;;;;;;31.63;6.40;;;;;;;;;;5092883;28;20020;-77
2023/12/27 08:46:53;;;;;;;25.55;5.18;;;;;;;;;;5093311;28;20020;-76
2023/12/27 08:49:19;;;;;;;33.83;5.68;;;;;;;;;;5092050;28;20047;-77
2023/12/27 08:51:45;;;;;;;24.38;5.18;;;;;;;;;;5092794;28;20032;-76
2023/12/27 08:54:11;;;;;;;25.00;5.53;;;;;;;;;;5092126;28;20024;-77
2023/12/27 08:56:37;;;;;;;21.75;4.82;;;;;;;;;;5091902;28;20024;-79
2023/12/27 08:59:03;;;;;;;21.50;5.35;;;;;;;;;;5093230;28;20048;-78
2023/12/27 09:01:31;;;;;;;39.97;5.85;;;;;;;;;;5092411;28;20651;-78
2023/12/27 09:03:57;;;;;;;26.00;5.15;;;;;;;;;;5095305;28;20521;-77
2023/12/27 09:06:23;;;;;;;32.58;6.00;;;;;;;;;;5103332;28;20024;-74
2023/12/27 09:08:49;;;;;;;30.30;6.03;;;;;;;;;;5092836;28;20016;-75
2023/12/27 09:11:18;;;;;;;25.67;5.78;;;;;;;;;;5091881;28;20095;-74
2023/12/27 09:13:44;;;;;;;21.95;5.10;;;;;;;;;;5091847;28;20031;-76
2023/12/27 09:16:10;;;;;;;27.92;4.80;;;;;;;;;;5090356;28;20024;-75
2023/12/27 09:18:36;;;;;;;28.02;5.82;;;;;;;;;;5092343;28;20028;-76
2023/12/27 09:21:02;;;;;;;29.00;5.30;;;;;;;;;;5091504;28;20025;-75
2023/12/27 09:23:28;;;;;;;24.70;4.97;;;;;;;;;;5091293;28;20407;-75
2023/12/27 09:25:54;;;;;;;32.08;5.93;;;;;;;;;;5093204;28;20058;-76
2023/12/27 09:28:22;;;;;;;25.40;5.35;;;;;;;;;;5095204;28;20028;-76
2023/12/27 09:30:48;;;;;;;24.48;5.53;;;;;;;;;;5095214;28;20044;-75
2023/12/27 09:33:14;;;;;;;24.60;5.07;;;;;;;;;;5094496;28;20698;-76
2023/12/27 09:35:40;;;;;;;27.77;6.45;;;;;;;;;;5094561;28;20149;-76
2023/12/27 09:38:06;;;;;;;37.00;7.07;;;;;;;;;;5095020;28;20036;-76
2023/12/27 09:40:32;;;;;;;34.15;10.82;;;;;;;;;;5095379;28;20024;-77
2023/12/27 09:42:59;;;;;;;31.35;6.63;;;;;;;;;;5093598;28;20494;-77
2023/12/27 09:45:26;;;;;;;31.08;7.20;;;;;;;;;;5094538;28;20020;-75
2023/12/27 09:47:53;;;;;;;29.63;6.40;;;;;;;;;;5094470;28;20031;-77
2023/12/27 09:50:20;;;;;;;41.47;9.00;;;;;;;;;;5094745;28;20040;-75
2023/12/27 09:52:47;;;;;;;60.50;18.40;;;;;;;;;;5097060;28;20036;-77
2023/12/27 09:55:13;;;;;;;45.40;13.52;;;;;;;;;;5094943;28;20028;-76
2023/12/27 09:57:39;;;;;;;32.88;7.55;;;;;;;;;;5094669;28;20069;-77
2023/12/27 10:00:06;;;;;;;81.45;22.92;;;;;;;;;;5099383;28;20047;-77
2023/12/27 10:02:34;;;;;;;28.65;6.82;;;;;;;;;;5096294;28;20024;-77
2023/12/27 10:05:02;;;;;;;28.75;5.63;;;;;;;;;;5094331;28;20030;-77
2023/12/27 10:07:28;;;;;;;31.58;7.45;;;;;;;;;;5094167;28;20513;-77
2023/12/27 10:09:55;;;;;;;33.70;5.70;;;;;;;;;;5094471;28;20524;-76
2023/12/27 10:12:21;;;;;;;25.73;5.60;;;;;;;;;;5094175;28;20020;-76
2023/12/27 10:14:49;;;;;;;19.48;4.20;;;;;;;;;;5094801;28;20414;-78
2023/12/27 10:17:15;;;;;;;20.75;4.72;;;;;;;;;;5096007;28;20541;-76
2023/12/27 10:19:45;;;;;;;27.13;4.80;;;;;;;;;;5094651;28;20107;-77
2023/12/27 10:22:14;;;;;;;27.23;5.35;;;;;;;;;;5094653;28;20032;-77
2023/12/27 10:24:40;;;;;;;33.17;6.18;;;;;;;;;;5094601;28;20394;-77
2023/12/27 10:27:08;;;;;;;22.75;4.95;;;;;;;;;;5095388;28;20017;-77
2023/12/27 10:29:34;;;;;;;21.75;4.72;;;;;;;;;;5094348;28;20480;-76
2023/12/27 10:32:01;;;;;;;24.15;4.80;;;;;;;;;;5095223;28;20053;-80
2023/12/27 10:34:27;;;;;;;33.13;4.80;;;;;;;;;;5103580;28;20513;-76
2023/12/27 10:37:01;;;;;;;27.55;4.68;;;;;;;;;;5108212;28;20102;-77
2023/12/27 10:39:27;;;;;;;23.83;4.32;;;;;;;;;;5116573;28;20057;-77
2023/12/27 10:41:53;;;;;;;23.88;4.72;;;;;;;;;;5116227;28;20027;-77
2023/12/27 10:44:19;;;;;;;28.48;4.78;;;;;;;;;;5114724;28;20016;-76
2023/12/27 10:46:46;;;;;;;27.58;4.40;;;;;;;;;;5111885;28;20073;-74
2023/12/27 10:49:13;;;;;;;24.60;4.47;;;;;;;;;;5113545;28;20098;-76
2023/12/27 10:51:40;;;;;;;25.35;4.78;;;;;;;;;;5111717;28;20036;-75
2023/12/27 10:54:07;;;;;;;28.67;6.30;;;;;;;;;;5113469;28;20027;-76
2023/12/27 10:56:39;;;;;;;43.10;12.50;;;;;;;;;;5113863;28;20051;-75
2023/12/27 10:59:06;;;;;;;28.58;5.07;;;;;;;;;;5113451;28;20122;-76
2023/12/27 11:01:37;;;;;;;40.42;13.10;;;;;;;;;;5112809;28;20063;-75
2023/12/27 11:04:09;;;;;;;27.45;5.65;;;;;;;;;;5114076;28;20024;-75
2023/12/27 11:06:38;;;;;;;30.20;7.15;;;;;;;;;;5112278;28;20049;-75
2023/12/27 11:09:07;;;;;;;31.88;6.20;;;;;;;;;;5113682;28;20411;-75
2023/12/27 11:11:36;;;;;;;29.35;5.50;;;;;;;;;;5113859;28;20020;-76
2023/12/27 11:14:04;;;;;;;24.88;5.25;;;;;;;;;;5114007;28;20028;-75
2023/12/27 11:16:33;;;;;;;31.02;6.35;;;;;;;;;;5114104;28;20487;-75
2023/12/27 11:19:01;;;;;;;27.40;5.78;;;;;;;;;;5112675;28;20110;-78
2023/12/27 11:21:27;;;;;;;28.48;5.63;;;;;;;;;;5113735;28;20034;-81
2023/12/27 11:23:53;;;;;;;26.23;5.13;;;;;;;;;;5112631;28;20015;-77
2023/12/27 11:26:19;;;;;;;35.50;6.93;;;;;;;;;;5111717;28;20062;-78
2023/12/27 11:28:46;;;;;;;35.45;6.13;;;;;;;;;;5111706;28;20501;-77
2023/12/27 11:31:13;;;;;;;41.28;7.15;;;;;;;;;;5111152;28;20081;-77
2023/12/27 11:33:39;;;;;;;36.00;6.82;;;;;;;;;;5111022;28;20528;-77
2023/12/27 11:36:06;;;;;;;31.65;6.63;;;;;;;;;;5111757;28;20135;-77
2023/12/27 11:38:32;;;;;;;29.17;6.35;;;;;;;;;;5110645;28;20028;-77
2023/12/27 11:41:00;;;;;;;30.70;6.05;;;;;;;;;;5111036;28;20471;-78
2023/12/27 11:43:27;;;;;;;29.48;6.00;;;;;;;;;;5111540;28;20114;-78
2023/12/27 11:46:01;;;;;;;28.48;8.27;;;;;;;;;;5111945;28;20381;-77
2023/12/27 11:48:27;;;;;;;110.28;36.00;;;;;;;;;;5111369;28;20474;-78
2023/12/27 11:50:56;;;;;;;35.67;7.53;;;;;;;;;;5112356;28;20016;-79
2023/12/27 11:53:24;;;;;;;27.33;6.28;;;;;;;;;;5112830;28;20020;-78
2023/12/27 11:55:51;;;;;;;26.35;6.43;;;;;;;;;;5112656;28;20481;-77
2023/12/27 11:58:33;;;;;;;30.13;7.18;;;;;;;;;;5111467;28;20156;-78
2023/12/27 12:01:18;;;;;;;27.88;6.90;;;;;;;;;;5114007;28;20055;-80
2023/12/27 12:03:45;;;;;;;28.00;5.88;;;;;;;;;;5114385;28;20470;-78
2023/12/27 12:06:19;;;;;;;31.98;6.15;;;;;;;;;;5112467;28;20106;-77
2023/12/27 12:08:46;;;;;;;30.60;7.10;;;;;;;;;;5112930;28;20019;-77
2023/12/27 12:11:16;;;;;;;31.27;6.65;;;;;;;;;;5112648;28;20144;-78
2023/12/27 12:13:42;;;;;;;28.50;5.72;;;;;;;;;;5111702;28;21778;-77
2023/12/27 12:16:08;;;;;;;24.85;6.05;;;;;;;;;;5112532;28;20112;-78
2023/12/27 12:18:35;;;;;;;28.90;5.90;;;;;;;;;;5112350;28;20031;-77
2023/12/27 12:21:01;;;;;;;32.45;6.07;;;;;;;;;;5112255;28;20486;-76
2023/12/27 12:23:30;;;;;;;24.23;5.88;;;;;;;;;;5114142;28;20050;-76
2023/12/27 12:26:00;;;;;;;25.08;5.32;;;;;;;;;;5115162;28;20024;-77
2023/12/27 12:28:30;;;;;;;26.38;4.78;;;;;;;;;;5114989;28;20019;-77
2023/12/27 12:30:56;;;;;;;27.13;4.85;;;;;;;;;;5113630;28;20027;-77
2023/12/27 12:33:23;;;;;;;34.65;5.35;;;;;;;;;;5113048;28;20089;-75
2023/12/27 12:35:50;;;;;;;28.23;5.53;;;;;;;;;;5113256;28;20336;-78
2023/12/27 12:38:18;;;;;;;25.55;5.45;;;;;;;;;;5114449;28;20028;-78
2023/12/27 12:40:45;;;;;;;29.63;6.43;;;;;;;;;;5116946;28;20066;-76
2023/12/27 12:43:12;;;;;;;30.70;5.22;;;;;;;;;;5099639;28;20414;-76
2023/12/27 12:45:39;;;;;;;33.53;5.60;;;;;;;;;;5092519;28;20083;-75
2023/12/27 12:48:05;;;;;;;29.77;5.38;;;;;;;;;;5092354;28;20024;-75
2023/12/27 12:50:31;;;;;;;21.65;5.10;;;;;;;;;;5097211;28;20032;-74
2023/12/27 12:52:57;;;;;;;28.23;5.60;;;;;;;;;;5110006;28;20016;-78
2023/12/27 12:55:28;;;;;;;37.50;7.95;;;;;;;;;;5116957;28;20016;-79
2023/12/27 12:57:56;;;;;;;33.15;5.32;;;;;;;;;;5117129;28;20040;-77
2023/12/27 13:00:22;;;;;;;23.75;4.68;;;;;;;;;;5119422;28;20031;-77
2023/12/27 13:02:49;;;;;;;19.10;4.18;;;;;;;;;;5120373;28;20016;-78
2023/12/27 13:05:15;;;;;;;30.88;4.53;;;;;;;;;;5120187;28;20016;-76
2023/12/27 13:07:42;;;;;;;22.77;4.43;;;;;;;;;;5120296;28;20055;-77
2023/12/27 13:10:10;;;;;;;23.00;5.28;;;;;;;;;;5118245;28;20008;-78
2023/12/27 13:12:36;;;;;;;32.53;4.63;;;;;;;;;;5118898;28;20008;-77
2023/12/27 13:15:03;;;;;;;27.95;4.78;;;;;;;;;;5115157;28;20092;-77
2023/12/27 13:17:29;;;;;;;24.02;4.80;;;;;;;;;;5111571;28;20088;-77
2023/12/27 13:19:55;;;;;;;22.90;4.15;;;;;;;;;;5105792;28;20047;-76
2023/12/27 13:22:21;;;;;;;26.42;4.25;;;;;;;;;;5113439;28;20539;-75
2023/12/27 13:24:47;;;;;;;21.80;4.25;;;;;;;;;;5117495;28;20015;-78
2023/12/27 13:27:13;;;;;;;32.28;4.75;;;;;;;;;;5116381;28;20024;-77
2023/12/27 13:29:39;;;;;;;23.35;4.47;;;;;;;;;;5116993;28;20022;-78
2023/12/27 13:32:06;;;;;;;29.20;4.38;;;;;;;;;;5116747;28;20498;-76
2023/12/27 13:34:32;;;;;;;27.13;3.97;;;;;;;;;;5116200;28;20077;-76
2023/12/27 13:36:58;;;;;;;26.05;4.10;;;;;;;;;;5116262;28;20043;-76
2023/12/27 13:39:24;;;;;;;23.45;4.35;;;;;;;;;;5115616;28;20027;-76
2023/12/27 13:41:50;;;;;;;29.83;4.45;;;;;;;;;;5115743;28;20432;-75
2023/12/27 13:44:16;;;;;;;33.42;5.10;;;;;;;;;;5111394;28;20059;-76
2023/12/27 13:46:42;;;;;;;22.88;4.22;;;;;;;;;;5107913;28;20455;-76
2023/12/27 13:49:09;;;;;;;20.85;4.47;;;;;;;;;;5115125;28;20019;-77
2023/12/27 13:51:36;;;;;;;28.95;4.25;;;;;;;;;;5103851;28;20055;-76
2023/12/27 13:54:03;;;;;;;31.63;4.25;;;;;;;;;;5103115;28;20409;-79
2023/12/27 13:56:29;;;;;;;19.92;4.30;;;;;;;;;;5106080;28;20054;-75
2023/12/27 13:58:55;;;;;;;21.52;4.22;;;;;;;;;;5105850;28;20051;-75
2023/12/27 14:01:21;;;;;;;29.13;4.75;;;;;;;;;;5108236;28;20487;-77
2023/12/27 14:03:47;;;;;;;31.52;5.30;;;;;;;;;;5102860;28;20058;-74
2023/12/27 14:06:13;;;;;;;27.05;4.40;;;;;;;;;;5101285;28;20138;-76
2023/12/27 14:08:40;;;;;;;34.55;4.82;;;;;;;;;;5106739;28;20028;-77
2023/12/27 14:11:06;;;;;;;19.95;4.32;;;;;;;;;;5107467;28;20131;-76
2023/12/27 14:13:32;;;;;;;24.10;4.78;;;;;;;;;;5098779;28;20035;-75
2023/12/27 14:15:59;;;;;;;28.85;4.65;;;;;;;;;;5094363;28;20028;-76
2023/12/27 14:18:26;;;;;;;21.70;4.35;;;;;;;;;;5103986;28;20028;-77
2023/12/27 14:20:52;;;;;;;26.98;5.00;;;;;;;;;;5102395;28;20031;-77
2023/12/27 14:23:18;;;;;;;24.88;4.35;;;;;;;;;;5102482;28;20059;-77